sensor_id;sensor_type;location;lat;lon;timestamp;pressure;altitude;pressure_sealevel;temperature;humidity
64632;BME280;58358;50.936;0.246;2023-04-06T00:00:10;101063.07;;;6.82;95.44
64632;BME280;58358;50.936;0.246;2023-04-06T00:02:35;101059.14;;;7.48;97.11
64632;BME280;58358;50.936;0.246;2023-04-06T00:05:00;101059.25;;;6.62;99.26
64632;BME280;58358;50.936;0.246;2023-04-06T00:07:25;101055.31;;;6.81;99.51
64632;BME280;58358;50.936;0.246;2023-04-06T00:09:51;101050.17;;;6.92;98.26
64632;BME280;58358;50.936;0.246;2023-04-06T00:12:16;101046.93;;;7.54;98.32
64632;BME280;58358;50.936;0.246;2023-04-06T00:14:41;101044.59;;;6.99;99.79
64632;BME280;58358;50.936;0.246;2023-04-06T00:17:07;101041.98;;;6.83;99.96
64632;BME280;58358;50.936;0.246;2023-04-06T00:19:33;101040.28;;;6.72;100.00
64632;BME280;58358;50.936;0.246;2023-04-06T00:21:59;101038.51;;;6.33;100.00
64632;BME280;58358;50.936;0.246;2023-04-06T00:24:24;101035.24;;;7.00;100.00
64632;BME280;58358;50.936;0.246;2023-04-06T00:26:49;101035.15;;;7.67;99.16
64632;BME280;58358;50.936;0.246;2023-04-06T00:29:14;101034.01;;;7.35;99.59
64632;BME280;58358;50.936;0.246;2023-04-06T00:31:40;101030.96;;;7.17;97.07
64632;BME280;58358;50.936;0.246;2023-04-06T00:34:05;101024.66;;;7.55;96.22
64632;BME280;58358;50.936;0.246;2023-04-06T00:36:31;101026.67;;;7.52;97.93
64632;BME280;58358;50.936;0.246;2023-04-06T00:38:57;101023.94;;;7.07;100.00
64632;BME280;58358;50.936;0.246;2023-04-06T00:41:22;101017.07;;;7.11;98.67
64632;BME280;58358;50.936;0.246;2023-04-06T00:43:48;101011.52;;;7.36;97.87
64632;BME280;58358;50.936;0.246;2023-04-06T00:46:13;101009.03;;;6.76;100.00
64632;BME280;58358;50.936;0.246;2023-04-06T00:48:39;101005.28;;;7.38;97.96
64632;BME280;58358;50.936;0.246;2023-04-06T00:51:04;101000.03;;;7.88;95.72
64632;BME280;58358;50.936;0.246;2023-04-06T00:53:29;100997.49;;;7.44;98.80
64632;BME280;58358;50.936;0.246;2023-04-06T00:55:54;100995.72;;;7.71;96.92
64632;BME280;58358;50.936;0.246;2023-04-06T00:58:20;100989.53;;;7.17;98.07
64632;BME280;58358;50.936;0.246;2023-04-06T01:00:45;100987.78;;;7.48;98.29
64632;BME280;58358;50.936;0.246;2023-04-06T01:03:10;100986.68;;;6.95;98.59
64632;BME280;58358;50.936;0.246;2023-04-06T01:05:36;100981.01;;;7.29;98.70
64632;BME280;58358;50.936;0.246;2023-04-06T01:08:02;100979.36;;;7.14;100.00
64632;BME280;58358;50.936;0.246;2023-04-06T01:10:28;100976.18;;;7.03;100.00
64632;BME280;58358;50.936;0.246;2023-04-06T01:12:53;100973.95;;;6.83;100.00
64632;BME280;58358;50.936;0.246;2023-04-06T01:15:19;100966.10;;;6.33;100.00
64632;BME280;58358;50.936;0.246;2023-04-06T01:17:43;100968.07;;;6.30;100.00
64632;BME280;58358;50.936;0.246;2023-04-06T01:20:09;100961.03;;;5.87;100.00
64632;BME280;58358;50.936;0.246;2023-04-06T01:22:34;100956.22;;;5.85;100.00
64632;BME280;58358;50.936;0.246;2023-04-06T01:25:00;100954.61;;;6.02;100.00
64632;BME280;58358;50.936;0.246;2023-04-06T01:27:26;100953.67;;;5.89;100.00
64632;BME280;58358;50.936;0.246;2023-04-06T01:29:51;100950.61;;;5.91;100.00
64632;BME280;58358;50.936;0.246;2023-04-06T01:32:16;100947.69;;;5.87;100.00
64632;BME280;58358;50.936;0.246;2023-04-06T01:34:42;100939.91;;;6.34;100.00
64632;BME280;58358;50.936;0.246;2023-04-06T01:37:07;100942.65;;;5.58;100.00
64632;BME280;58358;50.936;0.246;2023-04-06T01:39:32;100936.78;;;6.15;100.00
64632;BME280;58358;50.936;0.246;2023-04-06T01:41:58;100935.25;;;6.24;100.00
64632;BME280;58358;50.936;0.246;2023-04-06T01:44:24;100934.56;;;5.65;100.00
64632;BME280;58358;50.936;0.246;2023-04-06T01:46:49;100931.24;;;6.13;100.00
64632;BME280;58358;50.936;0.246;2023-04-06T01:49:15;100929.43;;;6.30;100.00
64632;BME280;58358;50.936;0.246;2023-04-06T01:51:41;100923.99;;;6.44;100.00
64632;BME280;58358;50.936;0.246;2023-04-06T01:54:07;100920.30;;;5.96;100.00
64632;BME280;58358;50.936;0.246;2023-04-06T01:56:33;100919.72;;;5.47;100.00
64632;BME280;58358;50.936;0.246;2023-04-06T01:58:58;100915.98;;;5.83;100.00
64632;BME280;58358;50.936;0.246;2023-04-06T02:01:24;100911.58;;;6.30;100.00
64632;BME280;58358;50.936;0.246;2023-04-06T02:03:50;100908.28;;;6.09;100.00
64632;BME280;58358;50.936;0.246;2023-04-06T02:06:16;100906.83;;;5.69;100.00
64632;BME280;58358;50.936;0.246;2023-04-06T02:08:41;100901.94;;;5.34;100.00
64632;BME280;58358;50.936;0.246;2023-04-06T02:11:07;100897.83;;;6.16;100.00
64632;BME280;58358;50.936;0.246;2023-04-06T02:13:33;100897.32;;;6.56;100.00
64632;BME280;58358;50.936;0.246;2023-04-06T02:15:59;100895.41;;;6.59;100.00
64632;BME280;58358;50.936;0.246;2023-04-06T02:18:24;100892.27;;;6.80;100.00
64632;BME280;58358;50.936;0.246;2023-04-06T02:20:50;100890.96;;;6.09;100.00
64632;BME280;58358;50.936;0.246;2023-04-06T02:23:16;100886.93;;;6.09;100.00
64632;BME280;58358;50.936;0.246;2023-04-06T02:25:41;100883.83;;;6.88;100.00
64632;BME280;58358;50.936;0.246;2023-04-06T02:28:07;100881.39;;;6.39;100.00
64632;BME280;58358;50.936;0.246;2023-04-06T02:30:33;100881.75;;;6.61;100.00
64632;BME280;58358;50.936;0.246;2023-04-06T02:32:59;100878.68;;;6.75;100.00
64632;BME280;58358;50.936;0.246;2023-04-06T02:35:25;100877.25;;;6.65;100.00
64632;BME280;58358;50.936;0.246;2023-04-06T02:37:49;100876.25;;;6.28;100.00
64632;BME280;58358;50.936;0.246;2023-04-06T02:40:15;100872.98;;;6.12;100.00
64632;BME280;58358;50.936;0.246;2023-04-06T02:42:40;100871.75;;;6.56;100.00
64632;BME280;58358;50.936;0.246;2023-04-06T02:45:07;100868.71;;;6.70;100.00
64632;BME280;58358;50.936;0.246;2023-04-06T02:47:32;100867.96;;;6.28;100.00
64632;BME280;58358;50.936;0.246;2023-04-06T02:49:57;100862.45;;;5.84;100.00
64632;BME280;58358;50.936;0.246;2023-04-06T02:52:23;100859.47;;;6.49;100.00
64632;BME280;58358;50.936;0.246;2023-04-06T02:54:48;100857.30;;;6.22;100.00
64632;BME280;58358;50.936;0.246;2023-04-06T02:57:14;100855.30;;;6.52;100.00
64632;BME280;58358;50.936;0.246;2023-04-06T02:59:40;100859.84;;;5.36;100.00
64632;BME280;58358;50.936;0.246;2023-04-06T03:02:06;100857.09;;;5.88;100.00
64632;BME280;58358;50.936;0.246;2023-04-06T03:04:31;100849.66;;;6.12;100.00
64632;BME280;58358;50.936;0.246;2023-04-06T03:06:56;100848.08;;;5.97;100.00
64632;BME280;58358;50.936;0.246;2023-04-06T03:09:22;100843.92;;;6.60;100.00
64632;BME280;58358;50.936;0.246;2023-04-06T03:11:48;100838.14;;;6.44;100.00
64632;BME280;58358;50.936;0.246;2023-04-06T03:14:14;100835.59;;;5.94;100.00
64632;BME280;58358;50.936;0.246;2023-04-06T03:16:39;100833.30;;;5.67;100.00
64632;BME280;58358;50.936;0.246;2023-04-06T03:19:05;100833.76;;;7.19;100.00
64632;BME280;58358;50.936;0.246;2023-04-06T03:21:31;100827.97;;;6.92;100.00
64632;BME280;58358;50.936;0.246;2023-04-06T03:23:57;100825.48;;;7.49;100.00
64632;BME280;58358;50.936;0.246;2023-04-06T03:26:22;100818.18;;;6.16;100.00
64632;BME280;58358;50.936;0.246;2023-04-06T03:28:48;100815.65;;;5.92;100.00
64632;BME280;58358;50.936;0.246;2023-04-06T03:31:13;100815.67;;;5.80;100.00
64632;BME280;58358;50.936;0.246;2023-04-06T03:33:39;100812.75;;;6.48;100.00
64632;BME280;58358;50.936;0.246;2023-04-06T03:36:05;100812.43;;;6.91;100.00
64632;BME280;58358;50.936;0.246;2023-04-06T03:38:29;100809.85;;;7.04;100.00
64632;BME280;58358;50.936;0.246;2023-04-06T03:40:55;100806.08;;;6.92;100.00
64632;BME280;58358;50.936;0.246;2023-04-06T03:43:21;100796.47;;;6.30;100.00
64632;BME280;58358;50.936;0.246;2023-04-06T03:45:46;100800.44;;;6.50;100.00
64632;BME280;58358;50.936;0.246;2023-04-06T03:48:12;100799.34;;;6.19;100.00
64632;BME280;58358;50.936;0.246;2023-04-06T03:50:38;100799.40;;;6.98;100.00
64632;BME280;58358;50.936;0.246;2023-04-06T03:53:03;100794.09;;;6.68;100.00
64632;BME280;58358;50.936;0.246;2023-04-06T03:55:28;100787.29;;;6.05;100.00
64632;BME280;58358;50.936;0.246;2023-04-06T03:57:54;100788.58;;;5.88;100.00
64632;BME280;58358;50.936;0.246;2023-04-06T04:00:20;100785.36;;;6.13;100.00
64632;BME280;58358;50.936;0.246;2023-04-06T04:02:45;100787.34;;;5.54;100.00
64632;BME280;58358;50.936;0.246;2023-04-06T04:05:10;100783.56;;;6.12;100.00
64632;BME280;58358;50.936;0.246;2023-04-06T04:07:36;100779.15;;;6.36;100.00
64632;BME280;58358;50.936;0.246;2023-04-06T04:10:02;100780.42;;;6.33;100.00
64632;BME280;58358;50.936;0.246;2023-04-06T04:12:27;100779.49;;;7.04;100.00
64632;BME280;58358;50.936;0.246;2023-04-06T04:14:53;100777.71;;;6.98;100.00
64632;BME280;58358;50.936;0.246;2023-04-06T04:17:19;100780.05;;;7.07;100.00
64632;BME280;58358;50.936;0.246;2023-04-06T04:19:44;100776.58;;;6.58;100.00
64632;BME280;58358;50.936;0.246;2023-04-06T04:22:10;100774.17;;;7.08;100.00
64632;BME280;58358;50.936;0.246;2023-04-06T04:24:36;100771.15;;;6.74;100.00
64632;BME280;58358;50.936;0.246;2023-04-06T04:27:01;100773.70;;;6.95;100.00
64632;BME280;58358;50.936;0.246;2023-04-06T04:29:27;100763.95;;;5.68;100.00
64632;BME280;58358;50.936;0.246;2023-04-06T04:31:53;100767.40;;;6.80;100.00
64632;BME280;58358;50.936;0.246;2023-04-06T04:34:20;100762.68;;;6.40;100.00
64632;BME280;58358;50.936;0.246;2023-04-06T04:36:44;100765.79;;;6.09;100.00
64632;BME280;58358;50.936;0.246;2023-04-06T04:39:10;100768.13;;;7.12;100.00
64632;BME280;58358;50.936;0.246;2023-04-06T04:41:36;100762.06;;;6.43;100.00
64632;BME280;58358;50.936;0.246;2023-04-06T04:44:02;100761.03;;;5.78;100.00
64632;BME280;58358;50.936;0.246;2023-04-06T04:46:27;100760.86;;;6.55;100.00
64632;BME280;58358;50.936;0.246;2023-04-06T04:48:52;100761.11;;;7.18;100.00
64632;BME280;58358;50.936;0.246;2023-04-06T04:51:18;100757.86;;;7.19;100.00
64632;BME280;58358;50.936;0.246;2023-04-06T04:53:44;100753.14;;;7.04;100.00
64632;BME280;58358;50.936;0.246;2023-04-06T04:56:09;100743.83;;;8.06;100.00
64632;BME280;58358;50.936;0.246;2023-04-06T04:58:35;100743.30;;;7.17;100.00
64632;BME280;58358;50.936;0.246;2023-04-06T05:01:00;100741.04;;;6.90;100.00
64632;BME280;58358;50.936;0.246;2023-04-06T05:03:26;100739.39;;;7.45;100.00
64632;BME280;58358;50.936;0.246;2023-04-06T05:05:52;100740.74;;;7.58;100.00
64632;BME280;58358;50.936;0.246;2023-04-06T05:08:18;100739.22;;;7.28;100.00
64632;BME280;58358;50.936;0.246;2023-04-06T05:10:43;100743.78;;;6.15;100.00
64632;BME280;58358;50.936;0.246;2023-04-06T05:13:09;100741.89;;;6.47;100.00
64632;BME280;58358;50.936;0.246;2023-04-06T05:15:34;100742.40;;;6.59;100.00
64632;BME280;58358;50.936;0.246;2023-04-06T05:18:00;100740.07;;;7.99;100.00
64632;BME280;58358;50.936;0.246;2023-04-06T05:20:26;100738.35;;;7.10;100.00
64632;BME280;58358;50.936;0.246;2023-04-06T05:22:52;100734.25;;;7.24;100.00
64632;BME280;58358;50.936;0.246;2023-04-06T05:25:18;100733.64;;;6.93;100.00
64632;BME280;58358;50.936;0.246;2023-04-06T05:27:43;100730.87;;;6.73;100.00
64632;BME280;58358;50.936;0.246;2023-04-06T05:30:09;100730.63;;;7.12;100.00
64632;BME280;58358;50.936;0.246;2023-04-06T05:32:34;100726.17;;;7.06;100.00
64632;BME280;58358;50.936;0.246;2023-04-06T05:35:00;100724.48;;;7.42;100.00
64632;BME280;58358;50.936;0.246;2023-04-06T05:37:26;100712.47;;;7.64;100.00
64632;BME280;58358;50.936;0.246;2023-04-06T05:39:52;100717.41;;;7.14;100.00
64632;BME280;58358;50.936;0.246;2023-04-06T05:42:17;100718.21;;;6.25;100.00
64632;BME280;58358;50.936;0.246;2023-04-06T05:44:43;100718.34;;;7.57;100.00
64632;BME280;58358;50.936;0.246;2023-04-06T05:47:08;100720.34;;;7.17;100.00
64632;BME280;58358;50.936;0.246;2023-04-06T05:49:34;100722.52;;;6.39;100.00
64632;BME280;58358;50.936;0.246;2023-04-06T05:51:59;100721.86;;;7.33;100.00
64632;BME280;58358;50.936;0.246;2023-04-06T05:54:24;100724.50;;;7.48;100.00
64632;BME280;58358;50.936;0.246;2023-04-06T05:56:50;100723.38;;;7.61;100.00
64632;BME280;58358;50.936;0.246;2023-04-06T05:59:15;100724.12;;;6.66;100.00
64632;BME280;58358;50.936;0.246;2023-04-06T06:01:41;100719.83;;;6.71;100.00
64632;BME280;58358;50.936;0.246;2023-04-06T06:04:06;100715.34;;;7.09;100.00
64632;BME280;58358;50.936;0.246;2023-04-06T06:06:32;100712.96;;;7.47;100.00
64632;BME280;58358;50.936;0.246;2023-04-06T06:08:57;100711.02;;;7.38;100.00
64632;BME280;58358;50.936;0.246;2023-04-06T06:11:22;100704.79;;;7.59;100.00
64632;BME280;58358;50.936;0.246;2023-04-06T06:13:47;100710.80;;;7.93;100.00
64632;BME280;58358;50.936;0.246;2023-04-06T06:16:13;100713.95;;;7.26;100.00
64632;BME280;58358;50.936;0.246;2023-04-06T06:18:38;100704.53;;;8.11;100.00
64632;BME280;58358;50.936;0.246;2023-04-06T06:21:04;100699.31;;;8.28;100.00
64632;BME280;58358;50.936;0.246;2023-04-06T06:23:30;100700.98;;;8.14;100.00
64632;BME280;58358;50.936;0.246;2023-04-06T06:25:55;100697.68;;;7.69;100.00
64632;BME280;58358;50.936;0.246;2023-04-06T06:28:20;100696.69;;;7.69;100.00
64632;BME280;58358;50.936;0.246;2023-04-06T06:30:46;100691.70;;;7.32;100.00
64632;BME280;58358;50.936;0.246;2023-04-06T06:33:11;100693.67;;;6.96;100.00
64632;BME280;58358;50.936;0.246;2023-04-06T06:35:37;100693.30;;;8.10;100.00
64632;BME280;58358;50.936;0.246;2023-04-06T06:38:02;100689.06;;;8.12;100.00
64632;BME280;58358;50.936;0.246;2023-04-06T06:40:28;100696.26;;;7.13;100.00
64632;BME280;58358;50.936;0.246;2023-04-06T06:42:53;100698.73;;;7.84;100.00
64632;BME280;58358;50.936;0.246;2023-04-06T06:45:19;100697.37;;;7.77;100.00
64632;BME280;58358;50.936;0.246;2023-04-06T06:47:44;100700.90;;;7.39;100.00
64632;BME280;58358;50.936;0.246;2023-04-06T06:50:10;100702.62;;;8.52;100.00
64632;BME280;58358;50.936;0.246;2023-04-06T06:52:35;100703.92;;;8.51;100.00
64632;BME280;58358;50.936;0.246;2023-04-06T06:55:01;100700.33;;;7.51;100.00
64632;BME280;58358;50.936;0.246;2023-04-06T06:57:27;100700.93;;;8.62;100.00
64632;BME280;58358;50.936;0.246;2023-04-06T06:59:52;100701.60;;;7.84;100.00
64632;BME280;58358;50.936;0.246;2023-04-06T07:02:17;100697.77;;;9.07;100.00
64632;BME280;58358;50.936;0.246;2023-04-06T07:04:43;100700.13;;;7.63;100.00
64632;BME280;58358;50.936;0.246;2023-04-06T07:07:08;100700.03;;;7.56;100.00
64632;BME280;58358;50.936;0.246;2023-04-06T07:09:35;100698.19;;;7.89;100.00
64632;BME280;58358;50.936;0.246;2023-04-06T07:11:59;100695.78;;;7.57;100.00
64632;BME280;58358;50.936;0.246;2023-04-06T07:14:24;100693.67;;;7.74;100.00
64632;BME280;58358;50.936;0.246;2023-04-06T07:16:50;100693.15;;;8.29;100.00
64632;BME280;58358;50.936;0.246;2023-04-06T07:19:15;100690.91;;;8.93;100.00
64632;BME280;58358;50.936;0.246;2023-04-06T07:21:41;100691.48;;;8.35;100.00
64632;BME280;58358;50.936;0.246;2023-04-06T07:24:06;100685.12;;;8.82;100.00
64632;BME280;58358;50.936;0.246;2023-04-06T07:26:31;100685.36;;;8.65;100.00
64632;BME280;58358;50.936;0.246;2023-04-06T07:28:56;100682.61;;;8.64;100.00
64632;BME280;58358;50.936;0.246;2023-04-06T07:31:22;100678.62;;;8.69;100.00
64632;BME280;58358;50.936;0.246;2023-04-06T07:33:47;100681.57;;;9.07;100.00
64632;BME280;58358;50.936;0.246;2023-04-06T07:36:12;100684.67;;;8.96;100.00
64632;BME280;58358;50.936;0.246;2023-04-06T07:38:38;100688.01;;;8.47;100.00
64632;BME280;58358;50.936;0.246;2023-04-06T07:41:03;100691.45;;;7.52;100.00
64632;BME280;58358;50.936;0.246;2023-04-06T07:43:29;100691.93;;;7.71;100.00
64632;BME280;58358;50.936;0.246;2023-04-06T07:45:55;100698.63;;;9.11;100.00
64632;BME280;58358;50.936;0.246;2023-04-06T07:48:20;100704.11;;;8.35;100.00
64632;BME280;58358;50.936;0.246;2023-04-06T07:50:46;100705.14;;;8.16;100.00
64632;BME280;58358;50.936;0.246;2023-04-06T07:53:12;100704.62;;;7.03;100.00
64632;BME280;58358;50.936;0.246;2023-04-06T07:55:38;100705.54;;;8.83;100.00
64632;BME280;58358;50.936;0.246;2023-04-06T07:58:03;100711.52;;;8.65;100.00
64632;BME280;58358;50.936;0.246;2023-04-06T08:00:30;100714.23;;;8.14;100.00
64632;BME280;58358;50.936;0.246;2023-04-06T08:02:54;100711.73;;;7.20;100.00
64632;BME280;58358;50.936;0.246;2023-04-06T08:05:20;100713.43;;;7.90;100.00
64632;BME280;58358;50.936;0.246;2023-04-06T08:07:45;100714.92;;;7.22;100.00
64632;BME280;58358;50.936;0.246;2023-04-06T08:10:11;100710.90;;;7.77;100.00
64632;BME280;58358;50.936;0.246;2023-04-06T08:12:37;100721.74;;;7.82;100.00
64632;BME280;58358;50.936;0.246;2023-04-06T08:15:02;100718.11;;;8.81;100.00
64632;BME280;58358;50.936;0.246;2023-04-06T08:17:27;100718.61;;;9.09;100.00
64632;BME280;58358;50.936;0.246;2023-04-06T08:19:52;100717.58;;;9.13;100.00
64632;BME280;58358;50.936;0.246;2023-04-06T08:22:18;100717.89;;;9.23;100.00
64632;BME280;58358;50.936;0.246;2023-04-06T08:24:43;100716.27;;;7.88;100.00
64632;BME280;58358;50.936;0.246;2023-04-06T08:27:09;100721.48;;;8.65;100.00
64632;BME280;58358;50.936;0.246;2023-04-06T08:29:35;100719.76;;;7.98;100.00
64632;BME280;58358;50.936;0.246;2023-04-06T08:32:00;100718.11;;;8.59;100.00
64632;BME280;58358;50.936;0.246;2023-04-06T08:34:26;100715.92;;;8.29;100.00
64632;BME280;58358;50.936;0.246;2023-04-06T08:36:52;100716.22;;;8.83;100.00
64632;BME280;58358;50.936;0.246;2023-04-06T08:39:17;100714.99;;;8.73;100.00
64632;BME280;58358;50.936;0.246;2023-04-06T08:41:43;100711.05;;;8.80;100.00
64632;BME280;58358;50.936;0.246;2023-04-06T08:44:09;100710.15;;;9.36;100.00
64632;BME280;58358;50.936;0.246;2023-04-06T08:46:35;100708.89;;;9.46;100.00
64632;BME280;58358;50.936;0.246;2023-04-06T08:49:02;100705.66;;;9.48;100.00
64632;BME280;58358;50.936;0.246;2023-04-06T08:51:27;100712.86;;;8.56;100.00
64632;BME280;58358;50.936;0.246;2023-04-06T08:53:52;100716.57;;;8.51;100.00
64632;BME280;58358;50.936;0.246;2023-04-06T08:56:18;100710.39;;;8.34;100.00
64632;BME280;58358;50.936;0.246;2023-04-06T08:58:43;100723.83;;;7.78;100.00
64632;BME280;58358;50.936;0.246;2023-04-06T09:01:11;100718.59;;;8.38;100.00
64632;BME280;58358;50.936;0.246;2023-04-06T09:03:37;100718.05;;;8.24;100.00
64632;BME280;58358;50.936;0.246;2023-04-06T09:06:00;100717.26;;;8.93;100.00
64632;BME280;58358;50.936;0.246;2023-04-06T09:08:26;100720.95;;;8.29;100.00
64632;BME280;58358;50.936;0.246;2023-04-06T09:10:52;100723.19;;;8.77;100.00
64632;BME280;58358;50.936;0.246;2023-04-06T09:13:17;100720.09;;;9.10;100.00
64632;BME280;58358;50.936;0.246;2023-04-06T09:15:43;100725.17;;;9.12;100.00
64632;BME280;58358;50.936;0.246;2023-04-06T09:18:09;100725.85;;;8.93;100.00
64632;BME280;58358;50.936;0.246;2023-04-06T09:20:34;100723.98;;;9.58;99.82
64632;BME280;58358;50.936;0.246;2023-04-06T09:23:00;100726.96;;;9.83;98.39
64632;BME280;58358;50.936;0.246;2023-04-06T09:25:26;100725.70;;;9.86;97.32
64632;BME280;58358;50.936;0.246;2023-04-06T09:28:00;100731.31;;;9.90;97.67
64632;BME280;58358;50.936;0.246;2023-04-06T09:30:17;100734.95;;;9.75;96.80
64632;BME280;58358;50.936;0.246;2023-04-06T09:32:45;100734.14;;;9.66;96.21
64632;BME280;58358;50.936;0.246;2023-04-06T09:35:09;100735.60;;;9.81;96.39
64632;BME280;58358;50.936;0.246;2023-04-06T09:37:34;100727.52;;;9.54;94.79
64632;BME280;58358;50.936;0.246;2023-04-06T09:40:03;100733.31;;;8.98;96.76
64632;BME280;58358;50.936;0.246;2023-04-06T09:42:26;100727.57;;;9.70;96.07
64632;BME280;58358;50.936;0.246;2023-04-06T09:44:51;100727.73;;;9.94;94.55
64632;BME280;58358;50.936;0.246;2023-04-06T09:47:18;100719.42;;;10.22;91.92
64632;BME280;58358;50.936;0.246;2023-04-06T09:49:43;100726.13;;;10.23;91.29
64632;BME280;58358;50.936;0.246;2023-04-06T09:52:11;100729.98;;;8.56;95.00
64632;BME280;58358;50.936;0.246;2023-04-06T09:54:35;100727.11;;;10.20;89.69
64632;BME280;58358;50.936;0.246;2023-04-06T09:57:06;100731.20;;;9.83;90.41
64632;BME280;58358;50.936;0.246;2023-04-06T09:59:33;100729.36;;;10.10;90.36
64632;BME280;58358;50.936;0.246;2023-04-06T10:01:51;100736.79;;;9.69;92.67
64632;BME280;58358;50.936;0.246;2023-04-06T10:04:26;100730.23;;;9.34;95.44
64632;BME280;58358;50.936;0.246;2023-04-06T10:06:43;100720.97;;;9.78;91.55
64632;BME280;58358;50.936;0.246;2023-04-06T10:09:08;100722.33;;;10.10;91.10
64632;BME280;58358;50.936;0.246;2023-04-06T10:11:34;100722.10;;;10.51;89.11
64632;BME280;58358;50.936;0.246;2023-04-06T10:14:00;100728.29;;;10.50;88.94
64632;BME280;58358;50.936;0.246;2023-04-06T10:16:26;100724.23;;;9.06;92.23
64632;BME280;58358;50.936;0.246;2023-04-06T10:18:55;100723.26;;;10.35;88.11
64632;BME280;58358;50.936;0.246;2023-04-06T10:21:20;100721.71;;;10.35;91.05
64632;BME280;58358;50.936;0.246;2023-04-06T10:23:46;100724.93;;;10.17;88.97
64632;BME280;58358;50.936;0.246;2023-04-06T10:26:13;100723.12;;;10.46;90.01
64632;BME280;58358;50.936;0.246;2023-04-06T10:28:35;100722.08;;;10.86;87.28
64632;BME280;58358;50.936;0.246;2023-04-06T10:31:00;100723.23;;;11.06;87.16
64632;BME280;58358;50.936;0.246;2023-04-06T10:33:25;100722.83;;;11.32;87.18
64632;BME280;58358;50.936;0.246;2023-04-06T10:35:51;100721.39;;;10.27;86.67
64632;BME280;58358;50.936;0.246;2023-04-06T10:38:16;100721.65;;;9.71;87.97
64632;BME280;58358;50.936;0.246;2023-04-06T10:40:42;100723.83;;;9.19;93.81
64632;BME280;58358;50.936;0.246;2023-04-06T10:43:09;100725.11;;;10.49;89.98
64632;BME280;58358;50.936;0.246;2023-04-06T10:45:33;100730.96;;;9.63;90.02
64632;BME280;58358;50.936;0.246;2023-04-06T10:47:59;100729.11;;;9.45;92.55
64632;BME280;58358;50.936;0.246;2023-04-06T10:50:25;100731.52;;;9.55;92.12
64632;BME280;58358;50.936;0.246;2023-04-06T10:52:58;100731.20;;;9.33;92.76
64632;BME280;58358;50.936;0.246;2023-04-06T10:55:16;100730.48;;;9.95;91.80
64632;BME280;58358;50.936;0.246;2023-04-06T10:57:41;100732.95;;;9.95;91.08
64632;BME280;58358;50.936;0.246;2023-04-06T11:00:08;100739.36;;;9.64;91.30
64632;BME280;58358;50.936;0.246;2023-04-06T11:02:32;100737.10;;;10.44;91.33
64632;BME280;58358;50.936;0.246;2023-04-06T11:04:58;100733.24;;;10.74;88.70
64632;BME280;58358;50.936;0.246;2023-04-06T11:07:24;100734.73;;;10.63;89.17
64632;BME280;58358;50.936;0.246;2023-04-06T11:09:50;100738.69;;;10.47;89.73
64632;BME280;58358;50.936;0.246;2023-04-06T11:12:21;100747.42;;;10.30;89.45
64632;BME280;58358;50.936;0.246;2023-04-06T11:14:40;100748.44;;;10.73;87.35
64632;BME280;58358;50.936;0.246;2023-04-06T11:17:06;100753.33;;;10.48;88.76
64632;BME280;58358;50.936;0.246;2023-04-06T11:19:32;100752.87;;;9.69;88.95
64632;BME280;58358;50.936;0.246;2023-04-06T11:22:06;100754.04;;;10.75;87.20
64632;BME280;58358;50.936;0.246;2023-04-06T11:24:24;100746.26;;;10.90;85.86
64632;BME280;58358;50.936;0.246;2023-04-06T11:26:50;100749.33;;;11.19;84.47
64632;BME280;58358;50.936;0.246;2023-04-06T11:29:16;100751.94;;;12.63;81.19
64632;BME280;58358;50.936;0.246;2023-04-06T11:31:41;100755.97;;;11.47;79.44
64632;BME280;58358;50.936;0.246;2023-04-06T11:34:09;100752.20;;;11.90;77.35
64632;BME280;58358;50.936;0.246;2023-04-06T11:36:31;100759.21;;;12.10;77.57
64632;BME280;58358;50.936;0.246;2023-04-06T11:38:57;100753.78;;;11.95;74.72
64632;BME280;58358;50.936;0.246;2023-04-06T11:41:23;100754.20;;;12.06;73.62
64632;BME280;58358;50.936;0.246;2023-04-06T11:43:48;100754.11;;;10.84;75.10
64632;BME280;58358;50.936;0.246;2023-04-06T11:46:18;100760.33;;;11.87;74.20
64632;BME280;58358;50.936;0.246;2023-04-06T11:48:44;100761.66;;;11.06;74.86
64632;BME280;58358;50.936;0.246;2023-04-06T11:51:04;100751.59;;;11.89;73.30
64632;BME280;58358;50.936;0.246;2023-04-06T11:53:30;100755.85;;;11.86;71.47
64632;BME280;58358;50.936;0.246;2023-04-06T11:55:56;100756.94;;;11.54;72.73
64632;BME280;58358;50.936;0.246;2023-04-06T11:58:21;100763.04;;;11.08;70.94
64632;BME280;58358;50.936;0.246;2023-04-06T12:00:47;100752.95;;;11.09;72.35
64632;BME280;58358;50.936;0.246;2023-04-06T12:03:13;100751.23;;;10.82;73.49
64632;BME280;58358;50.936;0.246;2023-04-06T12:05:38;100758.02;;;11.11;72.89
64632;BME280;58358;50.936;0.246;2023-04-06T12:08:04;100758.75;;;10.91;74.90
64632;BME280;58358;50.936;0.246;2023-04-06T12:10:29;100759.17;;;10.82;78.04
64632;BME280;58358;50.936;0.246;2023-04-06T12:12:55;100766.87;;;9.85;81.36
64632;BME280;58358;50.936;0.246;2023-04-06T12:15:21;100764.87;;;10.50;79.67
64632;BME280;58358;50.936;0.246;2023-04-06T12:17:47;100768.86;;;10.59;80.40
64632;BME280;58358;50.936;0.246;2023-04-06T12:20:12;100766.54;;;10.43;82.26
64632;BME280;58358;50.936;0.246;2023-04-06T12:22:38;100765.48;;;11.07;81.37
64632;BME280;58358;50.936;0.246;2023-04-06T12:25:05;100766.98;;;12.41;76.56
64632;BME280;58358;50.936;0.246;2023-04-06T12:27:29;100766.56;;;12.32;76.84
64632;BME280;58358;50.936;0.246;2023-04-06T12:29:55;100757.81;;;12.68;75.35
64632;BME280;58358;50.936;0.246;2023-04-06T12:32:21;100752.87;;;11.48;72.40
64632;BME280;58358;50.936;0.246;2023-04-06T12:34:47;100748.11;;;11.99;72.96
64632;BME280;58358;50.936;0.246;2023-04-06T12:37:12;100755.53;;;11.19;70.31
64632;BME280;58358;50.936;0.246;2023-04-06T12:39:38;100747.37;;;11.43;68.49
64632;BME280;58358;50.936;0.246;2023-04-06T12:42:03;100742.86;;;12.92;67.26